Time;durP1;ratioP1;P1;durP2;ratioP2;P2;SDS_P1;SDS_P2;PMS_P1;PMS_P2;Temp;Humidity;BMP_temperature;BMP_pressure;BME280_temperature;BME280_humidity;BME280_pressure;Samples;Min_cycle;Max_cycle;Signal;HPM_P1;HPM_P2
2023/09/26 00:00:59;;;;;;;3.20;2.60;;;17.60;99.90;;;;;;5111233;27;20472;-43
2023/09/26 00:03:25;;;;;;;3.65;2.58;;;17.50;99.90;;;;;;5077670;27;20021;-43
2023/09/26 00:05:52;;;;;;;3.70;2.80;;;17.50;99.90;;;;;;5098278;27;20027;-43
2023/09/26 00:08:18;;;;;;;3.03;2.67;;;17.40;99.90;;;;;;5089916;27;20038;-43
2023/09/26 00:10:47;;;;;;;4.47;2.80;;;17.40;99.90;;;;;;5085090;27;20369;-42
2023/09/26 00:13:16;;;;;;;2.50;2.30;;;17.40;99.90;;;;;;5101751;27;20025;-43
2023/09/26 00:15:42;;;;;;;2.75;2.50;;;17.30;99.90;;;;;;5076239;27;20012;-43
2023/09/26 00:18:08;;;;;;;3.83;2.83;;;17.30;99.90;;;;;;5107045;27;20072;-43
2023/09/26 00:20:38;;;;;;;3.10;2.80;;;17.20;99.90;;;;;;5068700;27;20018;-44
2023/09/26 00:23:08;;;;;;;4.82;3.33;;;17.20;99.90;;;;;;5120539;27;20036;-43
2023/09/26 00:25:48;;;;;;;4.93;3.63;;;17.20;99.90;;;;;;5068149;27;20032;-42
2023/09/26 00:28:14;;;;;;;3.97;3.15;;;17.20;99.90;;;;;;5120111;27;20593;-43
2023/09/26 00:30:41;;;;;;;4.28;3.42;;;17.20;99.90;;;;;;5068805;27;20021;-41
2023/09/26 00:33:06;;;;;;;3.30;3.00;;;17.10;99.90;;;;;;5119465;27;20051;-43
2023/09/26 00:35:32;;;;;;;3.20;2.85;;;17.10;99.90;;;;;;5061684;28;20021;-43
2023/09/26 00:37:58;;;;;;;3.17;2.85;;;17.00;99.90;;;;;;5126836;27;20024;-43
2023/09/26 00:40:23;;;;;;;3.60;2.80;;;17.00;99.90;;;;;;5060787;28;20092;-43
2023/09/26 00:42:50;;;;;;;5.82;3.20;;;16.90;99.90;;;;;;5127677;27;20759;-43
2023/09/26 00:45:21;;;;;;;4.00;2.70;;;16.90;99.90;;;;;;5061066;28;20410;-43
2023/09/26 00:47:48;;;;;;;3.35;3.05;;;16.90;99.90;;;;;;5122216;27;20053;-41
2023/09/26 00:50:14;;;;;;;3.30;3.00;;;16.80;99.90;;;;;;5068171;27;20016;-42
2023/09/26 00:52:45;;;;;;;3.88;2.83;;;16.80;99.90;;;;;;5112116;27;20033;-42
2023/09/26 00:55:13;;;;;;;3.30;3.00;;;16.80;99.90;;;;;;5079121;27;20091;-42
2023/09/26 00:57:39;;;;;;;4.30;3.03;;;16.70;99.90;;;;;;5105068;27;20471;-42
2023/09/26 01:00:08;;;;;;;5.90;3.53;;;16.70;99.90;;;;;;5089928;27;20475;-43
2023/09/26 01:02:34;;;;;;;3.72;3.03;;;16.70;99.90;;;;;;5093588;27;20054;-43
2023/09/26 01:05:03;;;;;;;4.03;3.63;;;16.60;99.90;;;;;;5103175;27;20062;-42
2023/09/26 01:07:35;;;;;;;4.22;3.17;;;16.60;99.90;;;;;;5080371;27;20032;-42
2023/09/26 01:10:03;;;;;;;4.55;3.58;;;16.60;99.90;;;;;;5109031;27;20029;-43
2023/09/26 01:12:29;;;;;;;3.88;3.17;;;16.50;99.90;;;;;;5074049;27;20028;-43
2023/09/26 01:14:55;;;;;;;3.70;3.08;;;16.50;99.90;;;;;;5120534;27;20072;-42
2023/09/26 01:17:21;;;;;;;3.72;3.30;;;16.50;99.90;;;;;;5157888;27;20033;-42
2023/09/26 01:19:47;;;;;;;5.15;3.60;;;16.50;99.90;;;;;;5111060;27;20029;-43
2023/09/26 01:22:17;;;;;;;4.18;3.40;;;16.50;99.90;;;;;;5167630;27;20026;-42
2023/09/26 01:24:43;;;;;;;4.72;3.72;;;16.50;99.90;;;;;;5109899;27;20041;-42
2023/09/26 01:27:12;;;;;;;4.63;4.22;;;16.50;99.90;;;;;;5169867;27;20032;-42
2023/09/26 01:29:37;;;;;;;5.07;4.03;;;16.50;99.90;;;;;;5102512;27;20032;-42
2023/09/26 01:32:03;;;;;;;4.40;3.63;;;16.50;99.90;;;;;;5170057;27;20044;-42
2023/09/26 01:34:35;;;;;;;3.97;3.42;;;16.50;99.90;;;;;;5103529;27;20124;-42
2023/09/26 01:37:09;;;;;;;3.47;3.17;;;16.50;99.90;;;;;;5170568;27;20022;-43
2023/09/26 01:39:35;;;;;;;5.53;3.70;;;16.50;99.90;;;;;;5105989;27;20059;-42
2023/09/26 01:42:01;;;;;;;3.55;2.95;;;16.50;99.90;;;;;;5167167;27;20560;-43
2023/09/26 01:44:28;;;;;;;3.58;3.00;;;16.50;99.90;;;;;;5120056;27;20033;-43
2023/09/26 01:46:53;;;;;;;4.07;3.33;;;16.40;99.90;;;;;;5155295;27;20034;-43
2023/09/26 01:49:22;;;;;;;4.78;3.38;;;16.50;99.90;;;;;;5131609;27;20044;-43
2023/09/26 01:51:47;;;;;;;3.83;3.30;;;16.40;99.90;;;;;;5143595;27;20203;-43
2023/09/26 01:54:13;;;;;;;3.60;3.30;;;16.40;99.90;;;;;;5144213;27;20107;-42
2023/09/26 01:56:38;;;;;;;4.72;3.42;;;16.40;99.90;;;;;;5128297;27;20177;-43
2023/09/26 01:59:04;;;;;;;3.97;3.50;;;16.40;99.90;;;;;;5158411;27;20056;-42
2023/09/26 02:01:33;;;;;;;3.83;3.50;;;16.40;99.90;;;;;;5114170;27;20437;-42
2023/09/26 02:03:58;;;;;;;6.00;3.72;;;16.40;99.90;;;;;;5161311;27;20059;-43
2023/09/26 02:06:24;;;;;;;4.53;4.00;;;16.40;99.90;;;;;;5110336;27;20061;-43
2023/09/26 02:08:49;;;;;;;3.90;3.50;;;16.40;99.90;;;;;;5164358;27;20400;-42
2023/09/26 02:11:15;;;;;;;4.25;3.85;;;16.40;99.90;;;;;;5107425;27;20026;-43
2023/09/26 02:13:41;;;;;;;4.00;3.60;;;16.40;99.90;;;;;;5170248;27;20028;-42
2023/09/26 02:16:11;;;;;;;4.07;3.40;;;16.40;99.90;;;;;;5134139;27;20022;-43
2023/09/26 02:18:36;;;;;;;4.65;3.35;;;16.40;99.90;;;;;;5169332;27;20551;-43
2023/09/26 02:21:02;;;;;;;4.68;3.60;;;16.40;99.90;;;;;;5101611;27;20072;-43
2023/09/26 02:23:27;;;;;;;4.53;3.83;;;16.40;99.90;;;;;;5169906;27;20719;-43
2023/09/26 02:25:53;;;;;;;4.20;3.70;;;16.40;99.90;;;;;;5116788;27;20504;-43
2023/09/26 02:28:19;;;;;;;3.65;3.35;;;16.40;99.90;;;;;;5155313;27;20030;-43
2023/09/26 02:30:48;;;;;;;3.33;3.03;;;16.40;99.90;;;;;;5129406;27;20024;-43
2023/09/26 02:33:14;;;;;;;4.25;3.40;;;16.40;99.90;;;;;;5144166;27;20129;-43
2023/09/26 02:35:42;;;;;;;3.30;3.00;;;16.40;99.90;;;;;;5141310;27;20049;-43
2023/09/26 02:38:08;;;;;;;6.28;4.05;;;16.40;99.90;;;;;;5131727;27;20402;-43
2023/09/26 02:40:40;;;;;;;4.55;4.10;;;16.30;99.90;;;;;;5153246;27;20572;-43
2023/09/26 02:43:07;;;;;;;4.97;3.83;;;16.30;99.90;;;;;;5123164;27;20030;-43
2023/09/26 02:45:35;;;;;;;5.30;4.30;;;16.30;99.90;;;;;;5160638;27;20118;-43
2023/09/26 02:48:03;;;;;;;5.85;3.67;;;16.20;99.90;;;;;;5112718;27;20041;-41
2023/09/26 02:50:29;;;;;;;3.38;3.08;;;16.20;99.90;;;;;;5161765;27;20021;-42
2023/09/26 02:52:57;;;;;;;3.22;2.92;;;16.30;99.90;;;;;;5109069;27;20106;-42
2023/09/26 02:55:23;;;;;;;3.35;3.05;;;16.20;99.90;;;;;;5163910;27;20098;-43
2023/09/26 02:57:48;;;;;;;3.83;3.20;;;16.20;99.90;;;;;;5107754;27;20418;-42
2023/09/26 03:00:16;;;;;;;3.40;3.10;;;16.20;99.90;;;;;;5167655;27;20734;-43
2023/09/26 03:02:46;;;;;;;4.40;3.00;;;16.20;99.90;;;;;;5102309;27;20748;-43
2023/09/26 03:05:12;;;;;;;3.33;3.03;;;16.20;99.90;;;;;;5168816;27;20022;-42
2023/09/26 03:07:39;;;;;;;4.68;3.55;;;16.20;99.90;;;;;;5101483;27;20495;-42
2023/09/26 03:10:06;;;;;;;4.18;3.40;;;16.10;99.90;;;;;;5166847;27;20037;-43
2023/09/26 03:12:31;;;;;;;4.57;3.60;;;16.10;99.90;;;;;;5110724;27;20072;-43
2023/09/26 03:14:57;;;;;;;5.40;3.53;;;16.10;99.90;;;;;;5158310;27;20018;-43
2023/09/26 03:17:23;;;;;;;4.35;3.47;;;16.10;99.90;;;;;;5116286;27;20094;-44
2023/09/26 03:19:48;;;;;;;4.10;3.60;;;16.00;99.90;;;;;;5086066;27;20387;-43
2023/09/26 03:22:14;;;;;;;4.15;3.53;;;16.10;99.90;;;;;;5090572;27;20081;-43
2023/09/26 03:24:45;;;;;;;3.65;3.28;;;16.00;99.90;;;;;;5100626;27;20086;-43
2023/09/26 03:27:11;;;;;;;4.05;3.40;;;16.00;99.90;;;;;;5080792;27;20025;-44
2023/09/26 03:29:36;;;;;;;4.50;4.05;;;16.00;99.90;;;;;;5110864;27;20136;-41
2023/09/26 03:32:02;;;;;;;6.93;4.15;;;16.00;99.90;;;;;;5069411;27;20036;-42
2023/09/26 03:34:27;;;;;;;4.10;3.70;;;16.00;99.90;;;;;;5120135;27;20041;-42
2023/09/26 03:36:53;;;;;;;5.00;4.03;;;15.90;99.90;;;;;;5070255;27;20494;-43
2023/09/26 03:39:18;;;;;;;4.65;4.10;;;15.90;99.90;;;;;;5121190;27;20752;-43
2023/09/26 03:41:44;;;;;;;5.20;3.95;;;15.90;99.90;;;;;;5062090;28;20641;-44
2023/09/26 03:44:09;;;;;;;4.60;4.00;;;15.90;99.90;;;;;;5128677;27;20507;-43
2023/09/26 03:46:35;;;;;;;4.53;3.90;;;15.80;99.90;;;;;;5062092;28;20387;-42
2023/09/26 03:49:03;;;;;;;3.92;3.50;;;15.80;99.90;;;;;;5127154;27;20065;-43
2023/09/26 03:51:30;;;;;;;4.22;3.83;;;15.80;99.90;;;;;;5062719;28;20456;-43
2023/09/26 03:53:55;;;;;;;4.68;4.28;;;15.80;99.90;;;;;;5119635;27;20527;-43
2023/09/26 03:56:21;;;;;;;4.60;3.90;;;15.80;99.90;;;;;;5069843;27;20032;-42
2023/09/26 03:58:46;;;;;;;5.78;4.80;;;15.80;99.90;;;;;;5105116;27;20491;-43
2023/09/26 04:01:14;;;;;;;4.40;3.80;;;15.80;99.90;;;;;;5085119;27;20022;-43
2023/09/26 04:03:43;;;;;;;4.35;3.95;;;15.70;99.90;;;;;;5092202;27;20135;-43
2023/09/26 04:06:09;;;;;;;4.43;4.00;;;15.70;99.90;;;;;;5094647;27;20032;-42
2023/09/26 04:08:35;;;;;;;5.18;4.00;;;15.70;99.90;;;;;;5081218;27;20028;-42
2023/09/26 04:11:01;;;;;;;4.50;3.65;;;15.70;99.90;;;;;;5107190;27;20044;-43
2023/09/26 04:13:26;;;;;;;4.35;3.95;;;15.60;99.90;;;;;;5069650;27;20021;-42
2023/09/26 04:15:55;;;;;;;4.47;4.00;;;15.60;99.90;;;;;;5145914;27;20033;-42
2023/09/26 04:18:22;;;;;;;4.15;3.75;;;15.60;99.90;;;;;;5158711;27;20530;-43
2023/09/26 04:20:48;;;;;;;4.40;4.00;;;15.60;99.90;;;;;;5108147;27;20054;-42
2023/09/26 04:23:16;;;;;;;4.93;4.13;;;15.50;99.90;;;;;;5166129;27;20058;-44
2023/09/26 04:25:42;;;;;;;4.88;4.40;;;15.50;99.90;;;;;;5104007;27;20022;-45
2023/09/26 04:28:08;;;;;;;4.57;4.10;;;15.50;99.90;;;;;;5167231;27;20040;-45
2023/09/26 04:30:38;;;;;;;4.90;3.80;;;15.50;99.90;;;;;;5100107;27;20035;-42
2023/09/26 04:33:05;;;;;;;5.03;4.32;;;15.50;99.90;;;;;;5166510;27;20097;-43
2023/09/26 04:35:30;;;;;;;5.25;4.75;;;15.50;99.90;;;;;;5101312;27;20020;-43
2023/09/26 04:37:56;;;;;;;6.20;4.03;;;15.40;99.90;;;;;;5166410;27;20023;-45
2023/09/26 04:40:22;;;;;;;5.38;4.45;;;15.40;99.90;;;;;;5115207;27;20576;-44
2023/09/26 04:42:52;;;;;;;6.07;4.13;;;15.40;99.90;;;;;;5153511;27;20044;-43
2023/09/26 04:45:17;;;;;;;4.90;4.40;;;15.40;99.90;;;;;;5125199;27;20021;-43
2023/09/26 04:47:43;;;;;;;5.80;4.78;;;15.40;99.90;;;;;;5142117;27;20034;-44
2023/09/26 04:50:09;;;;;;;5.50;4.82;;;15.30;99.90;;;;;;5138975;27;20104;-43
2023/09/26 04:52:35;;;;;;;5.47;4.97;;;15.30;99.90;;;;;;5128004;27;20022;-44
2023/09/26 04:55:02;;;;;;;7.30;5.43;;;15.30;99.90;;;;;;5152303;27;20022;-43
2023/09/26 04:57:27;;;;;;;5.65;5.05;;;15.30;99.90;;;;;;5115968;27;20035;-44
2023/09/26 04:59:53;;;;;;;6.63;5.07;;;15.30;99.90;;;;;;5159002;27;20017;-43
2023/09/26 05:02:19;;;;;;;5.57;4.95;;;15.20;99.90;;;;;;5107343;27;20368;-44
2023/09/26 05:04:48;;;;;;;5.70;4.70;;;15.20;99.90;;;;;;5159506;27;20031;-43
2023/09/26 05:07:14;;;;;;;5.18;4.70;;;15.20;99.90;;;;;;5106398;27;20049;-45
2023/09/26 05:09:40;;;;;;;6.70;4.78;;;15.20;99.90;;;;;;5167325;27;20074;-43
2023/09/26 05:12:06;;;;;;;7.05;4.85;;;15.20;99.90;;;;;;5099032;27;20046;-43
2023/09/26 05:14:32;;;;;;;6.72;4.63;;;15.20;99.90;;;;;;5166589;27;20022;-45
2023/09/26 05:16:57;;;;;;;5.57;4.60;;;15.20;99.90;;;;;;5099750;27;20032;-44
2023/09/26 05:19:23;;;;;;;4.78;4.28;;;15.10;99.90;;;;;;5166969;27;20026;-44
2023/09/26 05:21:49;;;;;;;5.82;5.22;;;15.10;99.90;;;;;;5111322;27;20020;-43
2023/09/26 05:24:14;;;;;;;4.20;3.80;;;15.20;99.90;;;;;;5155394;27;20023;-44
2023/09/26 05:26:40;;;;;;;6.22;4.80;;;15.10;99.90;;;;;;5124735;27;20115;-44
2023/09/26 05:29:05;;;;;;;5.68;4.90;;;15.10;99.90;;;;;;5140794;27;20041;-44
2023/09/26 05:31:32;;;;;;;5.25;4.65;;;15.10;99.90;;;;;;5139856;27;20044;-44
2023/09/26 05:33:58;;;;;;;6.80;4.65;;;15.10;99.90;;;;;;5126935;27;20599;-44
2023/09/26 05:36:24;;;;;;;6.28;5.25;;;15.10;99.90;;;;;;5153333;27;20029;-44
2023/09/26 05:38:50;;;;;;;5.78;5.05;;;15.10;99.90;;;;;;5116329;27;20452;-47
2023/09/26 05:41:18;;;;;;;6.50;4.90;;;15.10;99.90;;;;;;5160664;27;20463;-43
2023/09/26 05:43:44;;;;;;;5.57;4.97;;;15.00;99.90;;;;;;5109658;27;20451;-43
2023/09/26 05:46:10;;;;;;;7.80;5.25;;;15.10;99.90;;;;;;5161678;27;20122;-44
2023/09/26 05:48:40;;;;;;;6.45;4.97;;;15.00;99.90;;;;;;5110033;27;20041;-44
2023/09/26 05:51:05;;;;;;;5.40;4.90;;;15.00;99.90;;;;;;5169224;27;20026;-44
2023/09/26 05:53:31;;;;;;;5.28;4.70;;;15.00;99.90;;;;;;5102654;27;20026;-42
2023/09/26 05:55:57;;;;;;;8.27;5.25;;;15.10;99.90;;;;;;5168591;27;20026;-45
2023/09/26 05:58:22;;;;;;;5.95;4.90;;;15.00;99.90;;;;;;5102501;27;20059;-44
2023/09/26 06:00:48;;;;;;;6.72;4.90;;;15.10;99.90;;;;;;5169397;27;20026;-43
2023/09/26 06:03:15;;;;;;;5.28;4.78;;;15.10;99.90;;;;;;5143921;27;20038;-44
2023/09/26 06:05:45;;;;;;;5.90;5.20;;;15.10;99.90;;;;;;5072091;27;20036;-44
2023/09/26 06:08:11;;;;;;;5.38;4.88;;;15.10;99.90;;;;;;5108900;27;20485;-46
2023/09/26 06:10:36;;;;;;;5.68;5.07;;;15.10;99.90;;;;;;5082290;27;20032;-44
2023/09/26 06:13:02;;;;;;;9.73;5.45;;;15.10;99.90;;;;;;5094680;27;20033;-45
2023/09/26 06:15:28;;;;;;;5.88;5.28;;;15.10;99.90;;;;;;5096793;27;20032;-44
2023/09/26 06:17:57;;;;;;;6.85;5.40;;;15.10;99.90;;;;;;5149449;27;20014;-44
2023/09/26 06:20:23;;;;;;;7.10;5.25;;;15.10;99.90;;;;;;5124532;27;20077;-44
2023/09/26 06:22:49;;;;;;;6.88;5.40;;;15.20;99.90;;;;;;5161583;27;20026;-43
2023/09/26 06:25:14;;;;;;;5.57;4.85;;;15.20;99.90;;;;;;5108434;27;20027;-43
2023/09/26 06:27:40;;;;;;;7.88;5.88;;;15.20;99.90;;;;;;5161100;27;20033;-44
2023/09/26 06:30:06;;;;;;;5.95;5.00;;;15.30;99.90;;;;;;5108283;27;20726;-43
2023/09/26 06:32:35;;;;;;;5.68;5.10;;;15.30;99.90;;;;;;5167652;27;20508;-44
2023/09/26 06:35:01;;;;;;;6.68;4.78;;;15.40;99.90;;;;;;5103157;27;20102;-44
2023/09/26 06:37:26;;;;;;;6.70;5.20;;;15.40;99.90;;;;;;5168454;27;20198;-43
2023/09/26 06:39:53;;;;;;;6.03;5.03;;;15.40;99.90;;;;;;5101332;27;20021;-44
2023/09/26 06:42:18;;;;;;;5.15;4.55;;;15.50;99.90;;;;;;5168845;27;20026;-44
2023/09/26 06:44:44;;;;;;;7.65;5.30;;;15.50;99.90;;;;;;5106730;27;20028;-43
2023/09/26 06:47:10;;;;;;;6.40;4.88;;;15.50;99.90;;;;;;5162646;27;20054;-44
2023/09/26 06:49:36;;;;;;;5.05;4.55;;;15.50;99.90;;;;;;5120642;27;20050;-44
2023/09/26 06:52:01;;;;;;;5.72;4.78;;;15.50;99.90;;;;;;5149253;27;20014;-44
2023/09/26 06:54:27;;;;;;;5.07;4.30;;;15.60;99.90;;;;;;5135504;27;20080;-45
2023/09/26 06:56:53;;;;;;;6.25;5.10;;;15.60;99.90;;;;;;5136790;27;20026;-43
2023/09/26 06:59:18;;;;;;;4.78;4.28;;;15.60;99.90;;;;;;5148207;27;20033;-44
2023/09/26 07:01:44;;;;;;;5.40;4.65;;;15.60;99.90;;;;;;5121807;27;20026;-45
2023/09/26 07:04:14;;;;;;;6.47;5.50;;;15.60;99.90;;;;;;5161105;27;20022;-44
2023/09/26 07:06:40;;;;;;;5.30;4.80;;;15.70;99.90;;;;;;5100790;27;20034;-42
2023/09/26 07:09:07;;;;;;;6.20;5.60;;;15.70;99.90;;;;;;5160743;27;20099;-44
2023/09/26 07:11:33;;;;;;;7.82;5.50;;;15.80;99.90;;;;;;5109605;27;20010;-43
2023/09/26 07:14:02;;;;;;;7.13;5.93;;;15.80;99.90;;;;;;5165241;27;20718;-44
2023/09/26 07:16:27;;;;;;;6.38;5.78;;;15.90;99.90;;;;;;5120719;27;20034;-44
2023/09/26 07:18:53;;;;;;;5.50;4.93;;;16.00;99.90;;;;;;5168586;27;20018;-44
2023/09/26 07:21:19;;;;;;;5.90;4.93;;;16.00;99.90;;;;;;5100817;27;20201;-43
2023/09/26 07:23:44;;;;;;;5.95;4.93;;;16.00;99.90;;;;;;5168476;27;20037;-43
2023/09/26 07:26:14;;;;;;;4.57;4.07;;;16.10;99.90;;;;;;5103718;27;20562;-44
2023/09/26 07:28:43;;;;;;;7.57;5.30;;;16.20;99.90;;;;;;5168907;27;20152;-44
2023/09/26 07:31:11;;;;;;;6.80;4.32;;;16.20;99.90;;;;;;5112890;27;20035;-43
2023/09/26 07:33:38;;;;;;;4.97;3.95;;;16.30;99.90;;;;;;5158116;27;20481;-43
2023/09/26 07:36:04;;;;;;;4.75;4.25;;;16.30;99.90;;;;;;5124705;27;20063;-44
2023/09/26 07:38:31;;;;;;;8.13;4.70;;;16.40;99.90;;;;;;5145797;27;20504;-44
2023/09/26 07:40:58;;;;;;;5.00;4.55;;;16.40;99.90;;;;;;5136286;27;20538;-45
2023/09/26 07:43:29;;;;;;;6.45;4.95;;;16.50;99.90;;;;;;5133627;27;20030;-44
2023/09/26 07:46:05;;;;;;;4.53;4.13;;;16.50;99.90;;;;;;5146388;27;20053;-44
2023/09/26 07:48:31;;;;;;;7.07;4.72;;;16.60;99.90;;;;;;5130805;27;20442;-43
2023/09/26 07:51:00;;;;;;;4.20;3.75;;;16.70;99.90;;;;;;5151017;27;20020;-43
2023/09/26 07:53:26;;;;;;;7.97;4.28;;;16.70;99.90;;;;;;5117813;27;20038;-44
2023/09/26 07:55:57;;;;;;;5.50;4.15;;;16.80;99.90;;;;;;5160052;27;20377;-45
2023/09/26 07:58:23;;;;;;;5.22;4.22;;;16.80;99.90;;;;;;5098522;27;20024;-44
2023/09/26 08:00:49;;;;;;;4.20;3.80;;;16.90;99.90;;;;;;5159877;27;20101;-46
2023/09/26 08:03:14;;;;;;;5.05;3.78;;;16.90;99.90;;;;;;5107411;27;20105;-45
2023/09/26 08:05:40;;;;;;;4.22;3.83;;;17.00;99.90;;;;;;5167162;27;20018;-44
2023/09/26 08:08:06;;;;;;;4.00;3.60;;;17.00;99.90;;;;;;5100691;27;20034;-45
2023/09/26 08:10:37;;;;;;;3.95;3.55;;;17.10;99.90;;;;;;5167502;27;20378;-44
2023/09/26 08:13:03;;;;;;;4.50;4.05;;;17.20;99.90;;;;;;5100861;27;20031;-44
2023/09/26 08:15:31;;;;;;;4.53;3.55;;;17.20;99.90;;;;;;5166557;27;20022;-46
2023/09/26 08:18:03;;;;;;;4.80;3.80;;;17.30;99.90;;;;;;5133591;27;20018;-44
2023/09/26 08:20:28;;;;;;;4.25;3.50;;;17.30;99.90;;;;;;5042332;28;20029;-46
2023/09/26 08:22:54;;;;;;;5.30;3.22;;;17.30;99.90;;;;;;5112073;27;20090;-44
2023/09/26 08:25:20;;;;;;;3.80;3.05;;;17.40;99.90;;;;;;5071277;27;20483;-45
2023/09/26 08:27:45;;;;;;;4.00;3.60;;;17.40;99.90;;;;;;5103350;27;20072;-44
2023/09/26 08:30:12;;;;;;;4.32;3.40;;;17.40;99.90;;;;;;5085262;27;20021;-43
2023/09/26 08:32:39;;;;;;;3.85;3.40;;;17.50;99.90;;;;;;5089905;27;20085;-45
2023/09/26 08:35:11;;;;;;;3.90;3.30;;;17.50;99.90;;;;;;5098179;27;20016;-44
2023/09/26 08:37:37;;;;;;;;;;;17.50;99.90;;;;;;5082698;27;20349;-44
2023/09/26 08:40:13;;;;;;;3.33;2.85;;;17.60;99.90;;;;;;5106400;27;19909;-45
2023/09/26 08:42:45;;;;;;;3.03;2.72;;;17.70;99.90;;;;;;5076128;27;20021;-44
2023/09/26 08:45:11;;;;;;;3.88;3.22;;;17.70;99.90;;;;;;5108045;27;20036;-44
2023/09/26 08:47:43;;;;;;;5.47;3.70;;;17.70;99.90;;;;;;5069372;27;20036;-43
2023/09/26 08:50:12;;;;;;;5.22;4.10;;;17.80;99.90;;;;;;5100746;27;20026;-45
2023/09/26 08:52:38;;;;;;;5.22;3.50;;;17.80;99.90;;;;;;5157527;27;20020;-44
2023/09/26 08:55:06;;;;;;;4.65;3.67;;;17.80;99.90;;;;;;5107587;27;20500;-44
2023/09/26 08:57:32;;;;;;;5.05;4.35;;;17.90;99.90;;;;;;5160814;27;20192;-44
2023/09/26 09:00:01;;;;;;;5.07;4.40;;;17.90;99.90;;;;;;5083670;27;20022;-44
2023/09/26 09:02:27;;;;;;;4.50;4.00;;;17.90;99.90;;;;;;5167669;27;20508;-45
2023/09/26 09:04:53;;;;;;;5.30;3.95;;;17.90;99.90;;;;;;5099492;27;20022;-44
2023/09/26 09:07:19;;;;;;;4.78;3.95;;;17.90;99.90;;;;;;5166972;27;20019;-44
2023/09/26 09:10:10;;;;;;;4.90;3.50;;;18.00;99.90;;;;;;5101342;27;20475;-44
2023/09/26 09:12:38;;;;;;;4.78;3.45;;;18.10;99.90;;;;;;5170503;27;20468;-43
2023/09/26 09:15:19;;;;;;;3.90;3.50;;;18.10;99.90;;;;;;5103634;27;20123;-44
2023/09/26 09:17:49;;;;;;;4.43;3.75;;;18.20;99.90;;;;;;5084858;27;20029;-43
2023/09/26 09:20:33;;;;;;;4.82;4.30;;;18.30;99.90;;;;;;5129905;27;20022;-45
2023/09/26 09:22:59;;;;;;;3.95;3.58;;;18.30;99.90;;;;;;5064662;28;20780;-45
2023/09/26 09:25:36;;;;;;;3.97;3.53;;;18.40;99.90;;;;;;5131883;27;20046;-44
2023/09/26 09:28:04;;;;;;;4.78;4.03;;;18.40;99.90;;;;;;5063941;28;20495;-45
2023/09/26 09:30:41;;;;;;;3.85;3.30;;;18.40;99.90;;;;;;5131110;27;20018;-45
2023/09/26 09:33:10;;;;;;;4.53;3.53;;;18.50;99.90;;;;;;5063042;28;20052;-45
2023/09/26 09:35:39;;;;;;;5.22;3.58;;;18.50;99.90;;;;;;5131396;27;20023;-44
2023/09/26 09:38:12;;;;;;;5.60;3.80;;;18.60;99.90;;;;;;5063897;28;20069;-43
2023/09/26 09:40:38;;;;;;;3.65;3.28;;;18.70;99.90;;;;;;5125421;27;20018;-46
2023/09/26 09:43:04;;;;;;;3.65;3.05;;;18.80;99.90;;;;;;5068715;27;20032;-44
2023/09/26 09:45:34;;;;;;;4.20;3.35;;;18.90;99.90;;;;;;5112529;27;20437;-45
2023/09/26 09:48:03;;;;;;;4.10;3.47;;;19.00;99.90;;;;;;5077136;27;20044;-43
2023/09/26 09:50:31;;;;;;;4.75;3.38;;;19.10;99.90;;;;;;5103444;27;20026;-43
2023/09/26 09:53:01;;;;;;;4.13;3.00;;;19.20;99.90;;;;;;5088319;27;20036;-46
2023/09/26 09:55:32;;;;;;;3.63;3.33;;;19.30;99.90;;;;;;5094657;27;20062;-45
2023/09/26 09:58:02;;;;;;;3.47;2.80;;;19.40;99.90;;;;;;5095355;27;20836;-45
2023/09/26 10:00:31;;;;;;;3.40;2.90;;;19.40;99.90;;;;;;5087974;27;20018;-43
2023/09/26 10:03:00;;;;;;;3.17;2.67;;;19.50;99.90;;;;;;5103129;27;20036;-44
2023/09/26 10:05:28;;;;;;;4.03;2.67;;;19.50;99.90;;;;;;5079383;27;20020;-44
2023/09/26 10:07:55;;;;;;;3.15;2.85;;;19.60;99.90;;;;;;5113483;27;20044;-44
2023/09/26 10:10:22;;;;;;;3.40;3.10;;;19.70;99.90;;;;;;5070918;27;20020;-45
2023/09/26 10:12:51;;;;;;;4.22;3.10;;;19.80;99.90;;;;;;5123596;27;20028;-45
2023/09/26 10:15:17;;;;;;;3.15;2.75;;;19.80;99.90;;;;;;5070096;27;20457;-45
2023/09/26 10:17:45;;;;;;;4.75;3.35;;;19.90;99.90;;;;;;5075432;27;20721;-46
2023/09/26 10:20:14;;;;;;;4.30;3.13;;;20.00;99.90;;;;;;5074086;27;20107;-45
2023/09/26 10:22:42;;;;;;;5.20;3.22;;;20.00;99.90;;;;;;5106673;27;20022;-44
2023/09/26 10:25:08;;;;;;;3.75;2.90;;;20.10;99.90;;;;;;5169465;27;20089;-44
2023/09/26 10:27:34;;;;;;;4.07;2.70;;;20.10;99.90;;;;;;5103111;27;20044;-44
2023/09/26 10:30:04;;;;;;;2.88;2.30;;;20.20;99.90;;;;;;5168134;27;20442;-44
2023/09/26 10:32:34;;;;;;;5.22;2.83;;;20.30;99.90;;;;;;5102312;27;20104;-43
2023/09/26 10:35:22;;;;;;;3.03;2.72;;;20.30;99.90;;;;;;5169243;27;20038;-45
2023/09/26 10:37:49;;;;;;;3.47;2.35;;;20.40;99.90;;;;;;5102083;27;20040;-44
2023/09/26 10:40:16;;;;;;;2.88;2.10;;;20.40;99.90;;;;;;5168755;27;20018;-44
2023/09/26 10:42:45;;;;;;;2.33;2.08;;;20.50;99.90;;;;;;5107260;27;20451;-44
2023/09/26 10:45:12;;;;;;;2.60;2.40;;;20.50;99.90;;;;;;5165950;27;20034;-43
2023/09/26 10:47:39;;;;;;;3.40;2.53;;;20.60;99.90;;;;;;5118358;27;20085;-43
2023/09/26 10:50:12;;;;;;;3.20;2.38;;;20.70;99.90;;;;;;5154716;27;20022;-42
2023/09/26 10:52:47;;;;;;;2.97;2.22;;;20.70;99.90;;;;;;5126475;27;20019;-45
2023/09/26 10:55:20;;;;;;;3.22;2.30;;;20.70;99.90;;;;;;5152125;27;20041;-44
2023/09/26 10:57:49;;;;;;;3.28;2.60;;;20.80;99.90;;;;;;5126850;27;20035;-43
2023/09/26 11:00:15;;;;;;;2.50;2.30;;;20.80;99.90;;;;;;5146245;27;20018;-45
2023/09/26 11:02:43;;;;;;;3.30;2.22;;;20.80;99.90;;;;;;5128754;27;20078;-43
2023/09/26 11:05:10;;;;;;;2.60;2.10;;;20.80;99.90;;;;;;5133761;27;20025;-43
2023/09/26 11:07:37;;;;;;;3.50;2.60;;;20.90;99.90;;;;;;5149760;27;20046;-45
2023/09/26 11:10:04;;;;;;;2.50;2.30;;;20.90;99.90;;;;;;5123386;27;20090;-44
2023/09/26 11:12:31;;;;;;;2.47;2.28;;;20.90;99.90;;;;;;5161127;27;20015;-44
2023/09/26 11:15:03;;;;;;;4.07;2.42;;;20.90;99.90;;;;;;5100120;27;20485;-44
2023/09/26 11:17:29;;;;;;;2.83;2.53;;;20.90;99.90;;;;;;5109183;27;20026;-44
2023/09/26 11:19:58;;;;;;;4.05;2.25;;;20.90;99.90;;;;;;5125180;27;20517;-45
2023/09/26 11:22:27;;;;;;;1.67;1.58;;;21.00;99.90;;;;;;5070244;27;20059;-44
2023/09/26 11:25:06;;;;;;;5.00;2.55;;;21.00;99.90;;;;;;5122030;27;20762;-45
2023/09/26 11:27:36;;;;;;;4.43;2.33;;;21.10;99.90;;;;;;5067990;27;20096;-44
2023/09/26 11:30:03;;;;;;;4.85;2.60;;;21.20;99.90;;;;;;5117608;27;20116;-45
2023/09/26 11:32:29;;;;;;;3.33;2.45;;;21.30;99.90;;;;;;5062013;27;20044;-44
2023/09/26 11:34:55;;;;;;;3.40;2.15;;;21.40;99.90;;;;;;5128227;27;20052;-44
2023/09/26 11:37:23;;;;;;;2.40;2.03;;;21.50;99.90;;;;;;5062381;28;20052;-46
2023/09/26 11:39:53;;;;;;;3.40;2.20;;;21.50;99.90;;;;;;5128938;27;20021;-44
2023/09/26 11:42:20;;;;;;;2.10;1.88;;;21.60;99.90;;;;;;5062264;28;20049;-43
2023/09/26 11:44:53;;;;;;;2.95;2.30;;;21.60;99.90;;;;;;5124259;27;21102;-43
2023/09/26 11:47:24;;;;;;;1.80;1.70;;;21.60;99.90;;;;;;5041914;27;20040;-44
2023/09/26 11:49:51;;;;;;;2.65;2.22;;;21.70;99.90;;;;;;5114286;27;20060;-45
2023/09/26 11:52:18;;;;;;;2.55;2.30;;;21.70;99.90;;;;;;5070552;27;20032;-44
2023/09/26 11:54:46;;;;;;;2.80;2.50;;;21.70;99.90;;;;;;5105813;27;20668;-46
2023/09/26 11:57:12;;;;;;;2.78;1.90;;;21.80;99.90;;;;;;5081477;27;20036;-43
2023/09/26 11:59:38;;;;;;;2.70;1.70;;;21.80;99.90;;;;;;5095300;27;20018;-43
2023/09/26 12:02:04;;;;;;;2.30;1.85;;;21.80;99.90;;;;;;5093921;27;20026;-44
2023/09/26 12:04:32;;;;;;;2.00;1.80;;;21.90;99.90;;;;;;5081418;27;20024;-44
2023/09/26 12:06:58;;;;;;;2.30;2.10;;;21.90;99.90;;;;;;5106287;27;20028;-44
2023/09/26 12:09:24;;;;;;;2.42;1.83;;;22.00;99.90;;;;;;5068897;27;20031;-44
2023/09/26 12:11:53;;;;;;;2.08;1.88;;;22.00;99.90;;;;;;5120635;27;20017;-43
2023/09/26 12:14:19;;;;;;;2.42;1.80;;;22.00;99.90;;;;;;5068866;27;20030;-45
2023/09/26 12:16:49;;;;;;;2.47;1.90;;;22.10;99.90;;;;;;5152000;27;20375;-43
2023/09/26 12:19:15;;;;;;;2.00;1.80;;;22.10;99.90;;;;;;5161079;27;20022;-44
2023/09/26 12:21:41;;;;;;;2.67;2.35;;;22.10;99.90;;;;;;5105835;27;20022;-45
2023/09/26 12:24:07;;;;;;;2.55;2.30;;;22.20;99.90;;;;;;5167230;27;20034;-44
2023/09/26 12:26:32;;;;;;;3.55;2.80;;;22.20;99.90;;;;;;5100538;27;20606;-45
2023/09/26 12:28:58;;;;;;;3.60;2.58;;;22.30;99.90;;;;;;5166439;27;20121;-45
2023/09/26 12:31:24;;;;;;;4.75;3.30;;;22.30;99.90;;;;;;5102247;27;20157;-43
2023/09/26 12:33:50;;;;;;;3.70;2.65;;;22.30;99.90;;;;;;5116498;27;20032;-44
2023/09/26 12:36:15;;;;;;;3.10;2.20;;;22.40;99.90;;;;;;5088666;27;20025;-44
2023/09/26 12:38:44;;;;;;;4.30;2.30;;;22.50;99.90;;;;;;5152378;27;20033;-45
2023/09/26 12:41:10;;;;;;;3.63;2.40;;;22.50;99.90;;;;;;5128024;27;20101;-45
2023/09/26 12:43:35;;;;;;;2.28;2.05;;;22.60;99.90;;;;;;5139942;27;20087;-45
2023/09/26 12:46:01;;;;;;;4.13;3.10;;;22.60;99.90;;;;;;5143175;27;20024;-44
2023/09/26 12:48:27;;;;;;;2.67;2.47;;;22.60;99.90;;;;;;5130906;27;20038;-45